Terminal Aerodrome Forecast
Issued by NWS El Paso, TX

Home | Current Version | Previous Version | Text Only | Print | Product List | Glossary On
Versions: 1 2 3 4 5 6 7 8 9 10 11 12
000
FTUS44 KEPZ 232300
TAFELP
TAF
KELP 232322Z 2400/2424 25022G33KT P6SM FEW250
     FM240300 27015G25KT P6SM FEW250
      TEMPO 2403/2407 28022G32KT
     FM240800 29011KT P6SM SCT250
     FM241400 VRB04KT P6SM SCT250
     FM242100 23008KT P6SM SCT250=

USA.gov is the U.S. government's official web portal to all federal, state and local government web resources and services.